createdAt,value
2022-08-25T00:00:12.547Z,2.95
2022-08-25T00:02:39.390Z,3.20
2022-08-25T00:05:07.627Z,2.90
2022-08-25T00:07:36.407Z,3.05
2022-08-25T00:10:05.464Z,2.95
2022-08-25T00:12:32.617Z,3.47
2022-08-25T00:14:59.708Z,2.78
2022-08-25T00:17:27.558Z,3.35
2022-08-25T00:19:54.326Z,3.35
2022-08-25T00:22:21.086Z,3.15
2022-08-25T00:24:47.835Z,2.85
2022-08-25T00:27:14.860Z,3.25
2022-08-25T00:29:41.620Z,3.22
2022-08-25T00:32:08.374Z,3.35
2022-08-25T00:34:38.626Z,3.10
2022-08-25T00:37:09.368Z,3.17
2022-08-25T00:39:38.324Z,3.25
2022-08-25T00:42:07.435Z,2.85
2022-08-25T00:44:44.034Z,3.15
2022-08-25T00:47:11.482Z,3.10
2022-08-25T00:49:58.969Z,3.22
2022-08-25T00:52:43.572Z,3.28
2022-08-25T00:55:18.640Z,3.05
2022-08-25T00:58:01.408Z,2.85
2022-08-25T01:00:38.218Z,2.70
2022-08-25T01:03:06.852Z,2.85
2022-08-25T01:05:34.297Z,3.40
2022-08-25T01:08:03.316Z,3.10
2022-08-25T01:10:38.115Z,3.00
2022-08-25T01:13:23.765Z,3.10
2022-08-25T01:15:56.593Z,3.13
2022-08-25T01:18:24.445Z,3.38
2022-08-25T01:20:54.706Z,3.10
2022-08-25T01:23:23.164Z,3.20
2022-08-25T01:26:09.347Z,3.70
2022-08-25T01:28:36.676Z,3.45
2022-08-25T01:31:05.087Z,3.30
2022-08-25T01:33:51.483Z,3.42
2022-08-25T01:36:21.235Z,3.30
2022-08-25T01:38:48.910Z,2.90
2022-08-25T01:41:41.394Z,3.50
2022-08-25T01:44:10.903Z,3.00
2022-08-25T01:46:43.150Z,3.55
2022-08-25T01:49:10.623Z,3.75
2022-08-25T01:51:51.612Z,3.90
2022-08-25T01:54:18.701Z,3.65
2022-08-25T01:56:45.775Z,3.75
2022-08-25T01:59:23.838Z,3.22
2022-08-25T02:01:51.931Z,3.95
2022-08-25T02:04:29.537Z,4.22
2022-08-25T02:06:56.424Z,3.65
2022-08-25T02:09:23.254Z,3.75
2022-08-25T02:11:50.886Z,3.40
2022-08-25T02:14:19.888Z,3.72
2022-08-25T02:16:50.957Z,3.95
2022-08-25T02:19:19.730Z,3.75
2022-08-25T02:21:46.742Z,3.65
2022-08-25T02:24:13.730Z,3.95
2022-08-25T02:26:41.276Z,3.95
2022-08-25T02:29:09.654Z,4.22
2022-08-25T02:31:37.526Z,4.10
2022-08-25T02:34:05.816Z,4.22
2022-08-25T02:36:33.335Z,3.95
2022-08-25T02:39:00.893Z,3.75
2022-08-25T02:41:31.061Z,4.15
2022-08-25T02:43:59.267Z,4.13
2022-08-25T02:46:26.381Z,3.97
2022-08-25T02:48:53.800Z,4.28
2022-08-25T02:51:24.608Z,3.60
2022-08-25T02:53:52.020Z,3.75
2022-08-25T02:56:20.052Z,4.18
2022-08-25T02:58:48.046Z,4.38
2022-08-25T03:01:16.381Z,4.00
2022-08-25T03:03:46.501Z,4.65
2022-08-25T03:06:17.663Z,3.95
2022-08-25T03:08:45.181Z,3.83
2022-08-25T03:11:12.857Z,4.13
2022-08-25T03:13:40.600Z,4.50
2022-08-25T03:16:11.334Z,4.25
2022-08-25T03:18:42.098Z,4.65
2022-08-25T03:21:11.459Z,3.70
2022-08-25T03:23:40.016Z,4.70
2022-08-25T03:26:26.251Z,4.47
2022-08-25T03:28:55.414Z,3.85
2022-08-25T03:31:27.689Z,3.85
2022-08-25T03:33:55.643Z,4.13
2022-08-25T03:36:22.881Z,4.13
2022-08-25T03:38:50.937Z,4.35
2022-08-25T03:41:23.460Z,4.15
2022-08-25T03:43:53.371Z,4.45
2022-08-25T03:46:29.112Z,4.30
2022-08-25T03:48:57.692Z,4.38
2022-08-25T03:51:35.334Z,4.15
2022-08-25T03:54:04.633Z,4.32
2022-08-25T03:56:31.507Z,4.28
2022-08-25T03:58:58.998Z,4.18
2022-08-25T04:01:26.403Z,4.10
2022-08-25T04:03:53.270Z,4.38
2022-08-25T04:06:20.570Z,4.55
2022-08-25T04:08:48.024Z,5.35
2022-08-25T04:11:22.261Z,5.05
2022-08-25T04:13:50.129Z,4.60
2022-08-25T04:16:21.814Z,5.22
2022-08-25T04:18:50.531Z,5.03
2022-08-25T04:21:20.338Z,5.32
2022-08-25T04:23:49.498Z,6.22
2022-08-25T04:26:22.911Z,6.00
2022-08-25T04:28:49.927Z,6.10
2022-08-25T04:31:20.085Z,6.70
2022-08-25T04:33:48.072Z,6.75
2022-08-25T04:36:17.071Z,6.50
2022-08-25T04:38:46.343Z,6.30
2022-08-25T04:41:15.504Z,5.85
2022-08-25T04:43:44.328Z,7.05
2022-08-25T04:46:20.238Z,7.00
2022-08-25T04:48:49.278Z,6.70
2022-08-25T04:51:23.363Z,5.72
2022-08-25T04:53:51.457Z,6.68
2022-08-25T04:56:20.854Z,6.82
2022-08-25T04:58:47.905Z,6.43
2022-08-25T05:01:19.921Z,6.55
2022-08-25T05:03:52.247Z,6.07
2022-08-25T05:06:19.266Z,6.40
2022-08-25T05:08:46.272Z,6.72
2022-08-25T05:11:17.432Z,6.15
2022-08-25T05:13:51.514Z,6.05
2022-08-25T05:16:20.570Z,6.85
2022-08-25T05:18:47.646Z,6.18
2022-08-25T05:21:19.301Z,6.30
2022-08-25T05:23:47.489Z,6.20
2022-08-25T05:26:21.194Z,6.05
2022-08-25T05:28:51.992Z,6.18
2022-08-25T05:31:19.952Z,6.53
2022-08-25T05:33:47.314Z,6.25
2022-08-25T05:36:16.235Z,6.00
2022-08-25T05:38:43.769Z,6.43
2022-08-25T05:41:16.155Z,6.60
2022-08-25T05:43:45.658Z,7.18
2022-08-25T05:46:13.484Z,7.90
2022-08-25T05:48:40.348Z,8.70
2022-08-25T05:51:13.440Z,8.65
2022-08-25T05:53:43.698Z,7.32
2022-08-25T05:56:13.882Z,6.88
2022-08-25T05:58:42.828Z,8.07
2022-08-25T06:01:29.584Z,6.93
2022-08-25T06:03:56.470Z,7.50
2022-08-25T06:06:24.473Z,7.40
2022-08-25T06:08:51.683Z,7.28
2022-08-25T06:11:19.339Z,7.85
2022-08-25T06:13:46.503Z,8.13
2022-08-25T06:16:13.492Z,7.28
2022-08-25T06:18:40.421Z,7.03
2022-08-25T06:21:11.324Z,8.18
2022-08-25T06:23:38.550Z,8.27
2022-08-25T06:26:05.794Z,7.53
2022-08-25T06:28:32.593Z,8.35
2022-08-25T06:31:02.040Z,9.18
2022-08-25T06:33:57.297Z,8.75
2022-08-25T06:36:24.570Z,9.35
2022-08-25T06:38:52.701Z,8.32
2022-08-25T06:41:19.519Z,8.30
2022-08-25T06:43:49.878Z,9.00
2022-08-25T06:46:31.718Z,8.75
2022-08-25T06:49:07.158Z,8.20
2022-08-25T06:51:38.164Z,8.30
2022-08-25T06:54:07.442Z,8.75
2022-08-25T06:56:34.734Z,9.43
2022-08-25T06:59:03.981Z,8.90
2022-08-25T07:01:32.176Z,8.95
2022-08-25T07:04:03.046Z,9.35
2022-08-25T07:06:37.888Z,8.85
2022-08-25T07:09:07.597Z,8.73
2022-08-25T07:11:34.661Z,8.60
2022-08-25T07:14:04.396Z,8.68
2022-08-25T07:16:32.682Z,9.45
2022-08-25T07:19:01.339Z,9.50
2022-08-25T07:21:33.618Z,9.95
2022-08-25T07:24:09.157Z,9.23
2022-08-25T07:26:38.588Z,9.90
2022-08-25T07:29:31.849Z,10.82
2022-08-25T07:32:00.517Z,10.45
2022-08-25T07:34:45.788Z,11.20
2022-08-25T07:37:47.246Z,9.98
2022-08-25T07:40:11.650Z,10.48
2022-08-25T07:42:39.047Z,10.95
2022-08-25T07:45:07.505Z,10.70
2022-08-25T07:47:34.772Z,10.77
2022-08-25T07:50:01.942Z,10.80
2022-08-25T07:52:28.693Z,11.05
2022-08-25T07:54:55.501Z,11.40
2022-08-25T07:57:26.536Z,10.23
2022-08-25T07:59:53.374Z,10.20
2022-08-25T08:02:20.209Z,9.95
2022-08-25T08:04:51.040Z,9.95
2022-08-25T08:07:41.855Z,9.45
2022-08-25T08:13:01.726Z,9.88
2022-08-25T08:15:29.770Z,10.30
2022-08-25T08:17:59.118Z,9.90
2022-08-25T08:20:27.195Z,11.35
2022-08-25T08:22:54.249Z,10.52
2022-08-25T08:25:27.348Z,11.27
2022-08-25T08:27:56.165Z,10.77
2022-08-25T08:30:26.342Z,10.50
2022-08-25T08:33:11.845Z,10.73
2022-08-25T08:35:42.678Z,9.73
2022-08-25T08:38:17.278Z,9.45
2022-08-25T08:42:09.731Z,8.45
2022-08-25T08:44:49.908Z,8.73
2022-08-25T08:48:12.618Z,8.30
2022-08-25T08:51:20.213Z,7.80
2022-08-25T08:54:14.921Z,7.63
2022-08-25T08:56:48.630Z,7.70
2022-08-25T08:59:30.530Z,7.18
2022-08-25T09:02:04.347Z,6.85
2022-08-25T09:04:56.160Z,6.93
2022-08-25T09:07:31.612Z,6.80
2022-08-25T09:09:59.401Z,7.07
2022-08-25T09:12:48.370Z,7.50
2022-08-25T09:15:54.642Z,5.70
2022-08-25T09:18:52.554Z,6.10
2022-08-25T09:21:51.942Z,6.72
2022-08-25T09:24:31.143Z,5.78
2022-08-25T09:27:15.121Z,6.25
2022-08-25T09:30:05.458Z,5.97
2022-08-25T09:32:48.700Z,6.20
2022-08-25T09:35:32.452Z,5.60
2022-08-25T09:38:07.263Z,5.45
2022-08-25T09:40:39.245Z,6.18
2022-08-25T09:43:33.318Z,6.55
2022-08-25T09:46:12.393Z,6.00
2022-08-25T09:48:44.079Z,5.80
2022-08-25T09:51:43.016Z,6.40
2022-08-25T09:54:13.424Z,7.28
2022-08-25T09:57:02.047Z,6.53
2022-08-25T09:59:35.790Z,6.15
2022-08-25T10:02:28.580Z,5.55
2022-08-25T10:04:57.128Z,5.70
2022-08-25T10:07:39.492Z,5.90
2022-08-25T10:10:23.239Z,5.30
2022-08-25T10:12:51.377Z,5.90
2022-08-25T10:15:29.734Z,5.60
2022-08-25T10:18:34.629Z,5.53
2022-08-25T10:21:19.736Z,6.00
2022-08-25T10:23:52.908Z,5.40
2022-08-25T10:30:06.101Z,5.10
2022-08-25T10:33:13.923Z,4.68
2022-08-25T10:36:06.807Z,5.53
2022-08-25T10:38:39.083Z,4.70
2022-08-25T10:41:54.978Z,4.38
2022-08-25T10:45:01.578Z,5.65
2022-08-25T10:48:18.971Z,5.05
2022-08-25T10:50:59.027Z,4.57
2022-08-25T10:53:37.037Z,5.10
2022-08-25T10:56:15.229Z,4.68
2022-08-25T10:59:35.754Z,4.50
2022-08-25T11:02:21.596Z,4.60
2022-08-25T11:05:02.077Z,4.57
2022-08-25T11:07:39.935Z,5.57
2022-08-25T11:10:31.626Z,4.63
2022-08-25T11:13:06.904Z,4.75
2022-08-25T11:16:18.754Z,4.47
2022-08-25T11:18:57.540Z,4.95
2022-08-25T11:22:03.603Z,4.78
2022-08-25T11:25:05.522Z,5.05
2022-08-25T11:27:43.831Z,4.97
2022-08-25T11:30:16.525Z,4.72
2022-08-25T11:32:53.790Z,4.80
2022-08-25T11:35:39.065Z,4.65
2022-08-25T11:38:42.894Z,4.75
2022-08-25T11:41:31.094Z,4.47
2022-08-25T11:44:29.635Z,4.30
2022-08-25T11:47:37.068Z,4.70
2022-08-25T11:50:25.929Z,4.60
2022-08-25T11:53:14.075Z,4.80
2022-08-25T11:58:53.774Z,4.05
2022-08-25T12:01:39.502Z,4.60
2022-08-25T12:04:44.395Z,3.97
2022-08-25T12:07:19.201Z,3.85
2022-08-25T12:09:53.764Z,4.10
2022-08-25T12:12:30.946Z,4.68
2022-08-25T12:15:43.289Z,4.35
2022-08-25T12:18:24.577Z,4.70
2022-08-25T12:20:54.615Z,4.82
2022-08-25T12:23:38.226Z,4.53
2022-08-25T12:26:32.113Z,5.22
2022-08-25T12:29:21.462Z,4.90
2022-08-25T12:32:13.291Z,5.10
2022-08-25T12:35:26.426Z,4.28
2022-08-25T12:38:10.203Z,4.60
2022-08-25T12:40:45.418Z,4.43
2022-08-25T12:43:28.821Z,4.57
2022-08-25T12:46:22.914Z,4.43
2022-08-25T12:49:11.394Z,4.40
2022-08-25T12:51:57.346Z,5.13
2022-08-25T12:54:53.829Z,4.05
2022-08-25T12:57:44.743Z,4.43
2022-08-25T13:00:22.610Z,4.13
2022-08-25T13:03:08.358Z,3.92
2022-08-25T13:06:05.798Z,3.70
2022-08-25T13:09:44.697Z,4.30
2022-08-25T13:12:59.070Z,4.22
2022-08-25T13:15:44.554Z,3.92
2022-08-25T13:18:29.720Z,4.07
2022-08-25T13:21:16.261Z,4.20
2022-08-25T13:23:48.267Z,3.83
2022-08-25T13:26:28.648Z,4.13
2022-08-25T13:28:58.051Z,4.90
2022-08-25T13:31:30.522Z,4.13
2022-08-25T13:34:03.495Z,4.68
2022-08-25T13:37:06.810Z,4.53
2022-08-25T13:42:24.486Z,3.97
2022-08-25T13:44:55.820Z,4.43
2022-08-25T13:47:45.262Z,4.20
2022-08-25T13:50:19.972Z,4.63
2022-08-25T13:53:07.734Z,4.38
2022-08-25T13:55:52.407Z,4.95
2022-08-25T13:58:39.487Z,4.20
2022-08-25T14:01:45.904Z,4.35
2022-08-25T14:04:53.897Z,4.25
2022-08-25T14:07:24.994Z,4.30
2022-08-25T14:09:56.412Z,3.95
2022-08-25T14:12:46.904Z,3.80
2022-08-25T14:15:16.551Z,4.15
2022-08-25T14:17:49.031Z,4.10
2022-08-25T14:20:29.282Z,4.45
2022-08-25T14:23:00.333Z,4.13
2022-08-25T14:25:31.279Z,3.75
2022-08-25T14:28:07.141Z,4.00
2022-08-25T14:30:43.332Z,4.22
2022-08-25T14:33:15.108Z,3.53
2022-08-25T14:35:47.573Z,3.63
2022-08-25T14:38:15.684Z,3.85
2022-08-25T14:40:44.707Z,3.90
2022-08-25T14:43:12.664Z,4.47
2022-08-25T14:45:45.950Z,4.03
2022-08-25T14:48:28.203Z,4.80
2022-08-25T14:50:59.649Z,3.90
2022-08-25T14:53:27.927Z,4.10
2022-08-25T14:55:58.797Z,3.75
2022-08-25T14:58:26.945Z,3.60
2022-08-25T15:00:55.237Z,3.90
2022-08-25T15:03:31.930Z,3.83
2022-08-25T15:06:00.800Z,3.67
2022-08-25T15:08:47.485Z,3.30
2022-08-25T15:11:14.930Z,3.60
2022-08-25T15:13:47.692Z,3.83
2022-08-25T15:16:40.491Z,3.42
2022-08-25T15:19:14.403Z,3.78
2022-08-25T15:21:44.845Z,3.83
2022-08-25T15:24:17.268Z,3.55
2022-08-25T15:26:56.384Z,3.78
2022-08-25T15:29:27.328Z,3.65
2022-08-25T15:31:54.175Z,4.40
2022-08-25T15:34:21.065Z,3.72
2022-08-25T15:36:48.656Z,3.65
2022-08-25T15:39:17.934Z,3.78
2022-08-25T15:41:52.321Z,3.35
2022-08-25T15:44:20.409Z,3.80
2022-08-25T15:46:50.307Z,3.92
2022-08-25T15:49:23.159Z,4.00
2022-08-25T15:51:55.020Z,4.45
2022-08-25T15:54:26.661Z,4.10
2022-08-25T15:56:56.711Z,3.63
2022-08-25T15:59:25.324Z,4.60
2022-08-25T16:01:53.786Z,3.65
2022-08-25T16:04:23.794Z,4.10
2022-08-25T16:06:51.975Z,4.00
2022-08-25T16:09:23.134Z,3.50
2022-08-25T16:11:56.569Z,4.38
2022-08-25T16:14:25.499Z,3.25
2022-08-25T16:16:58.387Z,3.92
2022-08-25T16:19:28.285Z,3.83
2022-08-25T16:21:55.336Z,4.07
2022-08-25T16:24:22.140Z,3.83
2022-08-25T16:26:50.092Z,3.40
2022-08-25T16:29:19.909Z,3.60
2022-08-25T16:31:52.920Z,4.18
2022-08-25T16:34:19.936Z,4.00
2022-08-25T16:36:47.300Z,4.00
2022-08-25T16:39:18.490Z,4.18
2022-08-25T16:41:45.278Z,4.88
2022-08-25T16:44:13.323Z,3.83
2022-08-25T16:46:41.899Z,3.85
2022-08-25T16:49:13.540Z,4.65
2022-08-25T16:51:43.147Z,3.70
2022-08-25T16:54:30.554Z,3.85
2022-08-25T16:56:57.853Z,4.70
2022-08-25T16:59:25.844Z,3.83
2022-08-25T17:01:53.221Z,4.13
2022-08-25T17:04:20.925Z,3.85
2022-08-25T17:06:58.923Z,3.83
2022-08-25T17:09:25.732Z,3.50
2022-08-25T17:11:56.679Z,4.00
2022-08-25T17:14:24.353Z,4.32
2022-08-25T17:16:54.589Z,3.95
2022-08-25T17:19:23.813Z,4.20
2022-08-25T17:21:52.160Z,3.65
2022-08-25T17:24:19.372Z,4.10
2022-08-25T17:26:50.010Z,3.53
2022-08-25T17:29:18.129Z,3.72
2022-08-25T17:31:46.327Z,3.95
2022-08-25T17:34:16.884Z,4.40
2022-08-25T17:36:48.210Z,4.18
2022-08-25T17:39:18.168Z,4.07
2022-08-25T17:41:45.530Z,3.72
2022-08-25T17:44:13.496Z,3.72
2022-08-25T17:46:47.412Z,3.75
2022-08-25T17:49:15.970Z,4.22
2022-08-25T17:51:42.936Z,4.80
2022-08-25T17:54:10.927Z,4.50
2022-08-25T17:56:38.206Z,4.15
2022-08-25T17:59:06.320Z,4.05
2022-08-25T18:01:40.725Z,3.85
2022-08-25T18:04:17.439Z,4.10
2022-08-25T18:06:46.446Z,4.15
2022-08-25T18:09:14.422Z,4.50
2022-08-25T18:11:42.407Z,3.97
2022-08-25T18:14:11.274Z,4.28
2022-08-25T18:16:38.790Z,4.47
2022-08-25T18:19:06.524Z,4.55
2022-08-25T18:21:37.272Z,4.95
2022-08-25T18:24:05.528Z,4.35
2022-08-25T18:26:32.829Z,4.03
2022-08-25T18:28:59.877Z,3.92
2022-08-25T18:31:27.137Z,4.25
2022-08-25T18:33:54.067Z,4.32
2022-08-25T18:36:21.204Z,4.45
2022-08-25T18:39:08.539Z,5.28
2022-08-25T18:41:42.374Z,5.10
2022-08-25T18:44:10.952Z,4.75
2022-08-25T18:46:39.867Z,4.00
2022-08-25T18:49:06.766Z,4.40
2022-08-25T18:51:35.320Z,4.82
2022-08-25T18:54:03.409Z,4.90
2022-08-25T18:56:30.321Z,4.50
2022-08-25T18:58:58.290Z,5.53
2022-08-25T19:01:26.491Z,5.50
2022-08-25T19:03:56.118Z,4.88
2022-08-25T19:06:23.577Z,5.43
2022-08-25T19:08:50.401Z,5.13
2022-08-25T19:11:18.038Z,4.28
2022-08-25T19:13:49.819Z,5.00
2022-08-25T19:16:29.932Z,5.00
2022-08-25T19:18:57.099Z,5.35
2022-08-25T19:21:25.450Z,5.32
2022-08-25T19:23:53.458Z,5.13
2022-08-25T19:26:21.006Z,5.38
2022-08-25T19:28:49.546Z,5.00
2022-08-25T19:31:25.458Z,4.78
2022-08-25T19:33:55.206Z,4.90
2022-08-25T19:36:27.915Z,5.00
2022-08-25T19:38:58.665Z,4.97
2022-08-25T19:41:27.691Z,4.40
2022-08-25T19:43:57.241Z,5.10
2022-08-25T19:46:36.296Z,5.40
2022-08-25T19:49:26.976Z,5.60
2022-08-25T19:51:55.761Z,5.20
2022-08-25T19:54:35.346Z,6.22
2022-08-25T19:57:07.921Z,7.45
2022-08-25T19:59:44.459Z,7.45
2022-08-25T20:02:17.801Z,6.85
2022-08-25T20:04:50.431Z,8.48
2022-08-25T20:07:20.341Z,7.63
2022-08-25T20:09:47.470Z,6.30
2022-08-25T20:14:42.422Z,6.45
2022-08-25T20:17:14.495Z,5.90
2022-08-25T20:19:54.206Z,6.05
2022-08-25T20:22:25.092Z,6.05
2022-08-25T20:24:58.656Z,5.50
2022-08-25T20:27:37.009Z,5.60
2022-08-25T20:30:13.149Z,5.80
2022-08-25T20:32:40.665Z,5.32
2022-08-25T20:35:12.942Z,6.25
2022-08-25T20:37:41.814Z,5.97
2022-08-25T20:40:10.224Z,6.15
2022-08-25T20:42:37.312Z,6.50
2022-08-25T20:45:07.639Z,6.57
2022-08-25T20:47:35.323Z,6.15
2022-08-25T20:50:06.710Z,6.28
2022-08-25T20:52:34.667Z,6.13
2022-08-25T20:55:01.810Z,6.00
2022-08-25T20:57:28.854Z,6.75
2022-08-25T20:59:57.751Z,6.78
2022-08-25T21:02:26.832Z,6.93
2022-08-25T21:04:57.177Z,6.38
2022-08-25T21:07:24.310Z,5.75
2022-08-25T21:09:52.470Z,5.75
2022-08-25T21:12:20.313Z,6.45
2022-08-25T21:14:48.218Z,7.57
2022-08-25T21:17:19.262Z,10.80
2022-08-25T21:22:13.414Z,7.65
2022-08-25T21:24:40.202Z,6.85
2022-08-25T21:27:07.410Z,6.72
2022-08-25T21:29:34.775Z,5.72
2022-08-25T21:32:02.739Z,5.55
2022-08-25T21:34:30.866Z,6.43
2022-08-25T21:36:59.349Z,6.18
2022-08-25T21:39:29.545Z,5.95
2022-08-25T21:41:59.887Z,5.03
2022-08-25T21:44:28.191Z,6.65
2022-08-25T21:46:56.147Z,6.63
2022-08-25T21:49:25.176Z,7.53
2022-08-25T21:52:00.456Z,6.55
2022-08-25T21:54:28.974Z,5.97
2022-08-25T21:57:06.055Z,5.70
2022-08-25T21:59:40.526Z,5.80
2022-08-25T22:02:11.622Z,5.05
2022-08-25T22:04:39.417Z,5.70
2022-08-25T22:07:08.285Z,5.60
2022-08-25T22:09:35.961Z,5.43
2022-08-25T22:12:04.691Z,5.72
2022-08-25T22:14:32.480Z,5.50
2022-08-25T22:16:59.957Z,5.05
2022-08-25T22:19:27.538Z,5.85
2022-08-25T22:21:55.570Z,6.18
2022-08-25T22:24:23.275Z,5.47
2022-08-25T22:26:55.649Z,5.50
2022-08-25T22:29:25.464Z,5.30
2022-08-25T22:32:00.916Z,5.50
2022-08-25T22:34:34.378Z,5.45
2022-08-25T22:37:04.379Z,5.22
2022-08-25T22:39:32.369Z,5.18
2022-08-25T22:42:01.773Z,5.13
2022-08-25T22:44:28.583Z,4.80
2022-08-25T22:46:55.525Z,5.55
2022-08-25T22:49:23.667Z,4.70
2022-08-25T22:51:50.872Z,5.15
2022-08-25T22:54:18.132Z,4.63
2022-08-25T22:56:45.920Z,4.95
2022-08-25T22:59:13.785Z,5.35
2022-08-25T23:01:44.082Z,4.75
2022-08-25T23:04:12.018Z,4.72
2022-08-25T23:06:39.752Z,4.60
2022-08-25T23:09:08.955Z,5.10
2022-08-25T23:11:38.768Z,4.57
2022-08-25T23:14:10.346Z,5.10
2022-08-25T23:16:42.424Z,4.90
2022-08-25T23:19:14.683Z,4.57
2022-08-25T23:22:02.545Z,5.03
2022-08-25T23:24:31.006Z,4.55
2022-08-25T23:27:00.965Z,4.43
2022-08-25T23:29:28.056Z,4.32
2022-08-25T23:31:56.776Z,4.70
2022-08-25T23:34:25.167Z,4.82
2022-08-25T23:36:52.524Z,5.07
2022-08-25T23:39:21.675Z,4.55
2022-08-25T23:41:49.439Z,5.25
2022-08-25T23:44:17.417Z,4.38
2022-08-25T23:46:47.348Z,4.60
2022-08-25T23:49:18.171Z,4.53
2022-08-25T23:51:47.008Z,4.45
2022-08-25T23:54:14.630Z,3.97
2022-08-25T23:56:52.058Z,4.82
2022-08-25T23:59:24.192Z,4.18
